sensor_id;sensor_type;location;lat;lon;timestamp;pressure;altitude;pressure_sealevel;temperature;humidity
54146;BME280;65909;49.422;7.738;2023-02-18T00:00:08;76766.25;;;-145.25;98.99
54146;BME280;65909;49.422;7.738;2023-02-18T00:02:34;76762.22;;;-145.25;98.51
54146;BME280;65909;49.422;7.738;2023-02-18T00:04:59;76766.25;;;-145.25;98.61
54146;BME280;65909;49.422;7.738;2023-02-18T00:07:25;76766.25;;;-145.25;98.32
54146;BME280;65909;49.422;7.738;2023-02-18T00:09:50;76766.25;;;-145.25;97.40
54146;BME280;65909;49.422;7.738;2023-02-18T00:12:16;76770.25;;;-145.25;96.61
54146;BME280;65909;49.422;7.738;2023-02-18T00:14:41;76776.25;;;-145.25;95.95
54146;BME280;65909;49.422;7.738;2023-02-18T00:17:06;76768.25;;;-145.25;94.46
54146;BME280;65909;49.422;7.738;2023-02-18T00:19:32;76766.25;;;-145.25;95.12
54146;BME280;65909;49.422;7.738;2023-02-18T00:21:57;76754.19;;;-145.25;95.21
54146;BME280;65909;49.422;7.738;2023-02-18T00:24:23;76752.19;;;-145.25;95.18
54146;BME280;65909;49.422;7.738;2023-02-18T00:26:51;76756.22;;;-145.25;95.63
54146;BME280;65909;49.422;7.738;2023-02-18T00:29:17;76762.22;;;-145.25;95.85
54146;BME280;65909;49.422;7.738;2023-02-18T00:31:43;76766.25;;;-145.25;96.75
54146;BME280;65909;49.422;7.738;2023-02-18T00:34:10;76762.22;;;-145.25;96.92
54146;BME280;65909;49.422;7.738;2023-02-18T00:36:36;76766.25;;;-145.25;97.56
54146;BME280;65909;49.422;7.738;2023-02-18T00:39:05;76780.28;;;-145.25;98.15
54146;BME280;65909;49.422;7.738;2023-02-18T00:41:31;76776.25;;;-145.25;99.05
54146;BME280;65909;49.422;7.738;2023-02-18T00:43:56;76782.28;;;-145.25;99.22
54146;BME280;65909;49.422;7.738;2023-02-18T00:46:23;76770.25;;;-145.25;98.79
54146;BME280;65909;49.422;7.738;2023-02-18T00:48:48;76782.28;;;-145.25;99.25
54146;BME280;65909;49.422;7.738;2023-02-18T00:51:14;76790.28;;;-145.25;99.72
54146;BME280;65909;49.422;7.738;2023-02-18T00:53:39;76786.28;;;-145.25;99.75
54146;BME280;65909;49.422;7.738;2023-02-18T00:56:05;76790.28;;;-145.25;99.64
54146;BME280;65909;49.422;7.738;2023-02-18T00:58:31;76798.31;;;-145.25;99.48
54146;BME280;65909;49.422;7.738;2023-02-18T01:00:57;76800.31;;;-145.25;98.40
54146;BME280;65909;49.422;7.738;2023-02-18T01:03:23;76792.31;;;-145.25;97.33
54146;BME280;65909;49.422;7.738;2023-02-18T01:05:49;76790.28;;;-145.25;96.59
54146;BME280;65909;49.422;7.738;2023-02-18T01:08:16;76798.31;;;-145.25;96.40
54146;BME280;65909;49.422;7.738;2023-02-18T01:10:44;76780.28;;;-145.25;96.14
54146;BME280;65909;49.422;7.738;2023-02-18T01:13:11;76772.25;;;-145.25;94.57
54146;BME280;65909;49.422;7.738;2023-02-18T01:15:37;76770.25;;;-145.25;94.16
54146;BME280;65909;49.422;7.738;2023-02-18T01:18:03;76778.25;;;-145.25;94.49
54146;BME280;65909;49.422;7.738;2023-02-18T01:20:28;76780.28;;;-145.25;94.38
54146;BME280;65909;49.422;7.738;2023-02-18T01:22:54;76780.28;;;-145.25;94.13
54146;BME280;65909;49.422;7.738;2023-02-18T01:25:20;76776.25;;;-145.25;94.54
54146;BME280;65909;49.422;7.738;2023-02-18T01:27:46;76770.25;;;-145.25;94.44
54146;BME280;65909;49.422;7.738;2023-02-18T01:30:15;76782.28;;;-145.25;95.37
54146;BME280;65909;49.422;7.738;2023-02-18T01:32:41;76794.31;;;-145.25;96.20
54146;BME280;65909;49.422;7.738;2023-02-18T01:35:06;76774.25;;;-145.25;95.63
54146;BME280;65909;49.422;7.738;2023-02-18T01:37:32;76780.28;;;-145.25;95.71
54146;BME280;65909;49.422;7.738;2023-02-18T01:39:58;76784.28;;;-145.25;95.86
54146;BME280;65909;49.422;7.738;2023-02-18T01:42:26;76790.28;;;-145.25;96.03
54146;BME280;65909;49.422;7.738;2023-02-18T01:44:52;76778.25;;;-145.25;95.71
54146;BME280;65909;49.422;7.738;2023-02-18T01:47:20;76770.25;;;-145.25;95.56
54146;BME280;65909;49.422;7.738;2023-02-18T01:49:50;76768.25;;;-145.25;95.72
54146;BME280;65909;49.422;7.738;2023-02-18T01:52:20;76774.25;;;-145.25;95.77
54146;BME280;65909;49.422;7.738;2023-02-18T01:54:50;76764.22;;;-145.25;95.41
54146;BME280;65909;49.422;7.738;2023-02-18T01:57:36;76758.22;;;-145.25;94.95
54146;BME280;65909;49.422;7.738;2023-02-18T02:00:06;76758.22;;;-145.25;93.80
54146;BME280;65909;49.422;7.738;2023-02-18T02:02:35;76750.19;;;-145.25;93.46
54146;BME280;65909;49.422;7.738;2023-02-18T02:05:02;76750.19;;;-145.25;93.02
54146;BME280;65909;49.422;7.738;2023-02-18T02:07:27;76744.19;;;-145.25;93.02
54146;BME280;65909;49.422;7.738;2023-02-18T02:09:55;76756.22;;;-145.25;92.64
54146;BME280;65909;49.422;7.738;2023-02-18T02:16:02;76730.16;;;-145.25;92.32
54146;BME280;65909;49.422;7.738;2023-02-18T02:24:28;76718.13;;;-145.25;91.53
54146;BME280;65909;49.422;7.738;2023-02-18T02:35:56;76740.16;;;-145.25;91.97
54146;BME280;65909;49.422;7.738;2023-02-18T02:41:12;76720.13;;;-145.25;90.99
54146;BME280;65909;49.422;7.738;2023-02-18T02:44:16;76724.13;;;-145.25;91.24
54146;BME280;65909;49.422;7.738;2023-02-18T02:46:46;76720.13;;;-145.25;89.49
54146;BME280;65909;49.422;7.738;2023-02-18T02:49:41;76716.09;;;-145.25;89.15
54146;BME280;65909;49.422;7.738;2023-02-18T02:52:22;76726.13;;;-145.25;89.64
54146;BME280;65909;49.422;7.738;2023-02-18T02:54:49;76736.16;;;-145.25;89.64
54146;BME280;65909;49.422;7.738;2023-02-18T02:59:46;76734.16;;;-145.25;89.93
54146;BME280;65909;49.422;7.738;2023-02-18T03:10:52;76752.19;;;-145.25;89.95
54146;BME280;65909;49.422;7.738;2023-02-18T03:18:56;76730.16;;;-145.25;89.31
54146;BME280;65909;49.422;7.738;2023-02-18T03:21:32;76726.13;;;-145.25;88.76
54146;BME280;65909;49.422;7.738;2023-02-18T03:26:46;76732.16;;;-145.25;89.47
54146;BME280;65909;49.422;7.738;2023-02-18T03:29:14;76726.13;;;-145.25;89.70
54146;BME280;65909;49.422;7.738;2023-02-18T03:31:42;76738.16;;;-145.25;90.20
54146;BME280;65909;49.422;7.738;2023-02-18T03:34:12;76736.16;;;-145.25;90.60
54146;BME280;65909;49.422;7.738;2023-02-18T03:36:40;76742.19;;;-145.25;90.93
54146;BME280;65909;49.422;7.738;2023-02-18T03:39:18;76736.16;;;-145.25;90.85
54146;BME280;65909;49.422;7.738;2023-02-18T03:41:43;76748.19;;;-145.25;91.11
54146;BME280;65909;49.422;7.738;2023-02-18T03:44:10;76744.19;;;-145.25;91.07
54146;BME280;65909;49.422;7.738;2023-02-18T03:46:37;76752.19;;;-145.25;91.33
54146;BME280;65909;49.422;7.738;2023-02-18T03:49:04;76728.13;;;-145.25;90.63
54146;BME280;65909;49.422;7.738;2023-02-18T03:51:29;76734.16;;;-145.25;90.94
54146;BME280;65909;49.422;7.738;2023-02-18T03:53:55;76730.16;;;-145.25;90.07
54146;BME280;65909;49.422;7.738;2023-02-18T03:56:20;76726.13;;;-145.25;90.55
54146;BME280;65909;49.422;7.738;2023-02-18T03:58:46;76738.16;;;-145.25;90.72
54146;BME280;65909;49.422;7.738;2023-02-18T04:01:11;76726.13;;;-145.25;90.75
54146;BME280;65909;49.422;7.738;2023-02-18T04:03:37;76726.13;;;-145.25;91.06
54146;BME280;65909;49.422;7.738;2023-02-18T04:06:02;76734.16;;;-145.25;91.43
54146;BME280;65909;49.422;7.738;2023-02-18T04:08:28;76732.16;;;-145.25;91.62
54146;BME280;65909;49.422;7.738;2023-02-18T04:10:53;76734.16;;;-145.25;91.83
54146;BME280;65909;49.422;7.738;2023-02-18T04:13:19;76736.16;;;-145.25;92.11
54146;BME280;65909;49.422;7.738;2023-02-18T04:15:45;76734.16;;;-145.25;91.81
54146;BME280;65909;49.422;7.738;2023-02-18T04:18:10;76730.16;;;-145.25;91.72
54146;BME280;65909;49.422;7.738;2023-02-18T04:20:36;76728.13;;;-145.25;91.36
54146;BME280;65909;49.422;7.738;2023-02-18T04:23:03;76722.13;;;-145.25;91.22
54146;BME280;65909;49.422;7.738;2023-02-18T04:25:28;76728.13;;;-145.25;91.55
54146;BME280;65909;49.422;7.738;2023-02-18T04:27:54;76726.13;;;-145.25;91.79
54146;BME280;65909;49.422;7.738;2023-02-18T04:30:19;76722.13;;;-145.25;91.76
54146;BME280;65909;49.422;7.738;2023-02-18T04:32:45;76728.13;;;-145.25;91.86
54146;BME280;65909;49.422;7.738;2023-02-18T04:35:10;76724.13;;;-145.25;91.72
54146;BME280;65909;49.422;7.738;2023-02-18T04:37:35;76720.13;;;-145.25;91.50
54146;BME280;65909;49.422;7.738;2023-02-18T04:40:01;76724.13;;;-145.25;91.91
54146;BME280;65909;49.422;7.738;2023-02-18T04:42:26;76722.13;;;-145.25;91.50
54146;BME280;65909;49.422;7.738;2023-02-18T04:44:51;76720.13;;;-145.25;92.14
54146;BME280;65909;49.422;7.738;2023-02-18T04:47:17;76714.09;;;-145.25;92.06
54146;BME280;65909;49.422;7.738;2023-02-18T04:49:42;76718.13;;;-145.25;91.96
54146;BME280;65909;49.422;7.738;2023-02-18T04:52:07;76716.09;;;-145.25;91.71
54146;BME280;65909;49.422;7.738;2023-02-18T04:54:33;76714.09;;;-145.25;92.08
54146;BME280;65909;49.422;7.738;2023-02-18T04:56:58;76710.09;;;-145.25;91.89
54146;BME280;65909;49.422;7.738;2023-02-18T04:59:23;76710.09;;;-145.25;92.14
54146;BME280;65909;49.422;7.738;2023-02-18T05:01:49;76704.06;;;-145.25;91.83
54146;BME280;65909;49.422;7.738;2023-02-18T05:04:15;76702.06;;;-145.25;91.79
54146;BME280;65909;49.422;7.738;2023-02-18T05:06:41;76704.06;;;-145.25;91.34
54146;BME280;65909;49.422;7.738;2023-02-18T05:09:08;76702.06;;;-145.25;90.96
54146;BME280;65909;49.422;7.738;2023-02-18T05:11:33;76694.06;;;-145.25;90.70
54146;BME280;65909;49.422;7.738;2023-02-18T05:13:58;76694.06;;;-145.25;91.14
54146;BME280;65909;49.422;7.738;2023-02-18T05:16:24;76696.06;;;-145.25;91.16
54146;BME280;65909;49.422;7.738;2023-02-18T05:18:50;76694.06;;;-145.25;91.56
54146;BME280;65909;49.422;7.738;2023-02-18T05:21:15;76696.06;;;-145.25;92.22
54146;BME280;65909;49.422;7.738;2023-02-18T05:23:40;76712.09;;;-145.25;93.03
54146;BME280;65909;49.422;7.738;2023-02-18T05:26:06;76708.09;;;-145.25;93.43
54146;BME280;65909;49.422;7.738;2023-02-18T05:28:31;76700.06;;;-145.25;93.71
54146;BME280;65909;49.422;7.738;2023-02-18T05:30:56;76694.06;;;-145.25;93.68
54146;BME280;65909;49.422;7.738;2023-02-18T05:33:25;76690.03;;;-145.25;93.97
54146;BME280;65909;49.422;7.738;2023-02-18T05:35:51;76698.06;;;-145.25;94.68
54146;BME280;65909;49.422;7.738;2023-02-18T05:38:16;76702.06;;;-145.25;95.23
54146;BME280;65909;49.422;7.738;2023-02-18T05:40:41;76702.06;;;-145.25;96.75
54146;BME280;65909;49.422;7.738;2023-02-18T05:43:07;76704.06;;;-145.25;97.70
54146;BME280;65909;49.422;7.738;2023-02-18T05:45:32;76708.09;;;-145.25;99.58
54146;BME280;65909;49.422;7.738;2023-02-18T05:47:58;76718.13;;;-145.25;100.00
54146;BME280;65909;49.422;7.738;2023-02-18T05:50:23;76722.13;;;-145.25;100.00
54146;BME280;65909;49.422;7.738;2023-02-18T05:52:49;76714.09;;;-145.25;100.00
54146;BME280;65909;49.422;7.738;2023-02-18T05:55:14;76706.09;;;-145.25;100.00
54146;BME280;65909;49.422;7.738;2023-02-18T05:57:39;76710.09;;;-145.25;100.00
54146;BME280;65909;49.422;7.738;2023-02-18T06:00:05;76706.09;;;-145.25;100.00
54146;BME280;65909;49.422;7.738;2023-02-18T06:02:33;76696.06;;;-145.25;100.00
54146;BME280;65909;49.422;7.738;2023-02-18T06:04:58;76686.03;;;-145.25;100.00
54146;BME280;65909;49.422;7.738;2023-02-18T06:07:24;76684.03;;;-145.25;99.61
54146;BME280;65909;49.422;7.738;2023-02-18T06:09:49;76674.00;;;-145.25;98.53
54146;BME280;65909;49.422;7.738;2023-02-18T06:12:14;76659.97;;;-145.25;97.39
54146;BME280;65909;49.422;7.738;2023-02-18T06:14:40;76661.97;;;-145.25;96.55
54146;BME280;65909;49.422;7.738;2023-02-18T06:17:08;76641.94;;;-145.25;95.12
54146;BME280;65909;49.422;7.738;2023-02-18T06:19:33;76639.91;;;-145.25;94.96
54146;BME280;65909;49.422;7.738;2023-02-18T06:21:59;76651.94;;;-145.25;94.17
54146;BME280;65909;49.422;7.738;2023-02-18T06:24:24;76641.94;;;-145.25;94.00
54146;BME280;65909;49.422;7.738;2023-02-18T06:26:49;76659.97;;;-145.25;94.43
54146;BME280;65909;49.422;7.738;2023-02-18T06:29:15;76647.94;;;-145.25;93.62
54146;BME280;65909;49.422;7.738;2023-02-18T06:31:40;76637.91;;;-145.25;93.19
54146;BME280;65909;49.422;7.738;2023-02-18T06:34:05;76647.94;;;-145.25;93.74
54146;BME280;65909;49.422;7.738;2023-02-18T06:36:31;76649.94;;;-145.25;93.63
54146;BME280;65909;49.422;7.738;2023-02-18T06:38:56;76643.94;;;-145.25;93.19
54146;BME280;65909;49.422;7.738;2023-02-18T06:41:23;76655.97;;;-145.25;93.79
54146;BME280;65909;49.422;7.738;2023-02-18T06:43:49;76649.94;;;-145.25;92.74
54146;BME280;65909;49.422;7.738;2023-02-18T06:46:14;76649.94;;;-145.25;92.40
54146;BME280;65909;49.422;7.738;2023-02-18T06:48:40;76649.94;;;-145.25;92.45
54146;BME280;65909;49.422;7.738;2023-02-18T06:51:05;76651.94;;;-145.25;92.13
54146;BME280;65909;49.422;7.738;2023-02-18T06:53:31;76637.91;;;-145.25;91.26
54146;BME280;65909;49.422;7.738;2023-02-18T06:55:57;76631.91;;;-145.25;90.26
54146;BME280;65909;49.422;7.738;2023-02-18T06:58:25;76619.88;;;-145.25;89.31
54146;BME280;65909;49.422;7.738;2023-02-18T07:00:50;76623.88;;;-145.25;88.02
54146;BME280;65909;49.422;7.738;2023-02-18T07:03:16;76617.88;;;-145.25;87.40
54146;BME280;65909;49.422;7.738;2023-02-18T07:05:41;76621.88;;;-145.25;87.05
54146;BME280;65909;49.422;7.738;2023-02-18T07:08:07;76601.81;;;-145.25;85.83
54146;BME280;65909;49.422;7.738;2023-02-18T07:10:32;76615.88;;;-145.25;85.74
54146;BME280;65909;49.422;7.738;2023-02-18T07:12:58;76595.81;;;-145.25;84.65
54146;BME280;65909;49.422;7.738;2023-02-18T07:15:23;76607.84;;;-145.25;84.40
54146;BME280;65909;49.422;7.738;2023-02-18T07:17:51;76597.81;;;-145.25;83.93
54146;BME280;65909;49.422;7.738;2023-02-18T07:20:17;76591.81;;;-145.25;82.79
54146;BME280;65909;49.422;7.738;2023-02-18T07:22:42;76589.81;;;-145.25;81.54
54146;BME280;65909;49.422;7.738;2023-02-18T07:25:08;76597.81;;;-145.25;81.24
54146;BME280;65909;49.422;7.738;2023-02-18T07:27:33;76597.81;;;-145.25;80.29
54146;BME280;65909;49.422;7.738;2023-02-18T07:29:58;76583.78;;;-145.25;79.04
54146;BME280;65909;49.422;7.738;2023-02-18T07:32:24;76597.81;;;-145.25;79.07
54146;BME280;65909;49.422;7.738;2023-02-18T07:34:52;76603.84;;;-145.25;78.05
54146;BME280;65909;49.422;7.738;2023-02-18T07:37:18;76603.84;;;-145.25;78.42
54146;BME280;65909;49.422;7.738;2023-02-18T07:39:44;76585.78;;;-145.25;77.27
54146;BME280;65909;49.422;7.738;2023-02-18T07:42:10;76581.78;;;-145.25;77.23
54146;BME280;65909;49.422;7.738;2023-02-18T07:44:37;76587.78;;;-145.25;76.18
54146;BME280;65909;49.422;7.738;2023-02-18T07:47:03;76609.84;;;-145.25;76.36
54146;BME280;65909;49.422;7.738;2023-02-18T07:49:29;76595.81;;;-145.25;75.62
54146;BME280;65909;49.422;7.738;2023-02-18T07:51:54;76605.84;;;-145.25;75.13
54146;BME280;65909;49.422;7.738;2023-02-18T07:54:19;76577.78;;;-145.25;74.36
54146;BME280;65909;49.422;7.738;2023-02-18T07:56:45;76571.75;;;-145.25;74.21
54146;BME280;65909;49.422;7.738;2023-02-18T07:59:11;76565.75;;;-145.25;74.12
54146;BME280;65909;49.422;7.738;2023-02-18T08:01:38;76571.75;;;-145.25;73.20
54146;BME280;65909;49.422;7.738;2023-02-18T08:04:03;76555.72;;;-145.25;72.90
54146;BME280;65909;49.422;7.738;2023-02-18T08:06:44;76563.72;;;-145.25;72.70
54146;BME280;65909;49.422;7.738;2023-02-18T08:09:10;76567.75;;;-145.25;72.81
54146;BME280;65909;49.422;7.738;2023-02-18T08:11:36;76541.69;;;-145.25;71.91
54146;BME280;65909;49.422;7.738;2023-02-18T08:14:01;76571.75;;;-145.25;72.26
54146;BME280;65909;49.422;7.738;2023-02-18T08:16:27;76567.75;;;-145.25;71.97
54146;BME280;65909;49.422;7.738;2023-02-18T08:18:53;76577.78;;;-145.25;71.25
54146;BME280;65909;49.422;7.738;2023-02-18T08:21:20;76581.78;;;-145.25;71.58
54146;BME280;65909;49.422;7.738;2023-02-18T08:23:46;76583.78;;;-145.25;70.55
54146;BME280;65909;49.422;7.738;2023-02-18T08:26:12;76603.84;;;-145.25;70.07
54146;BME280;65909;49.422;7.738;2023-02-18T08:28:38;76609.84;;;-145.25;70.69
54146;BME280;65909;49.422;7.738;2023-02-18T08:31:03;76589.81;;;-145.25;69.65
54146;BME280;65909;49.422;7.738;2023-02-18T08:33:29;76577.78;;;-145.25;69.17
54146;BME280;65909;49.422;7.738;2023-02-18T08:35:56;76589.81;;;-145.25;69.27
54146;BME280;65909;49.422;7.738;2023-02-18T08:38:22;76579.78;;;-145.25;67.60
54146;BME280;65909;49.422;7.738;2023-02-18T08:40:48;76581.78;;;-145.25;67.60
54146;BME280;65909;49.422;7.738;2023-02-18T08:43:15;76589.81;;;-145.25;67.38
54146;BME280;65909;49.422;7.738;2023-02-18T08:45:42;76589.81;;;-145.25;67.82
54146;BME280;65909;49.422;7.738;2023-02-18T08:48:09;76581.78;;;-145.25;68.30
54146;BME280;65909;49.422;7.738;2023-02-18T08:50:35;76591.81;;;-145.25;68.06
54146;BME280;65909;49.422;7.738;2023-02-18T08:53:00;76577.78;;;-145.25;67.97
54146;BME280;65909;49.422;7.738;2023-02-18T08:55:31;76569.75;;;-145.25;67.26
54146;BME280;65909;49.422;7.738;2023-02-18T08:57:57;76563.72;;;-145.25;66.26
54146;BME280;65909;49.422;7.738;2023-02-18T09:00:23;76577.78;;;-145.25;66.44
54146;BME280;65909;49.422;7.738;2023-02-18T09:02:48;76559.72;;;-145.25;66.46
54146;BME280;65909;49.422;7.738;2023-02-18T09:05:14;76549.69;;;-145.25;65.67
54146;BME280;65909;49.422;7.738;2023-02-18T09:07:39;76563.72;;;-145.25;66.11
54146;BME280;65909;49.422;7.738;2023-02-18T09:10:06;76579.78;;;-145.25;66.01
54146;BME280;65909;49.422;7.738;2023-02-18T09:12:32;76563.72;;;-145.25;65.93
54146;BME280;65909;49.422;7.738;2023-02-18T09:14:57;76535.66;;;-145.25;65.92
54146;BME280;65909;49.422;7.738;2023-02-18T09:17:23;76553.72;;;-145.25;65.25
54146;BME280;65909;49.422;7.738;2023-02-18T09:19:48;76557.72;;;-145.25;66.29
54146;BME280;65909;49.422;7.738;2023-02-18T09:22:14;76557.72;;;-145.25;65.66
54146;BME280;65909;49.422;7.738;2023-02-18T09:24:40;76557.72;;;-145.25;66.90
54146;BME280;65909;49.422;7.738;2023-02-18T09:27:06;76557.72;;;-145.25;66.13
54146;BME280;65909;49.422;7.738;2023-02-18T09:29:32;76559.72;;;-145.25;66.03
54146;BME280;65909;49.422;7.738;2023-02-18T09:32:02;76559.72;;;-145.25;66.39
54146;BME280;65909;49.422;7.738;2023-02-18T09:34:28;76557.72;;;-145.25;66.48
54146;BME280;65909;49.422;7.738;2023-02-18T09:36:53;76545.69;;;-145.25;66.24
54146;BME280;65909;49.422;7.738;2023-02-18T09:39:19;76551.72;;;-145.25;66.50
54146;BME280;65909;49.422;7.738;2023-02-18T09:41:46;76547.69;;;-145.25;65.38
54146;BME280;65909;49.422;7.738;2023-02-18T09:44:17;76569.75;;;-145.25;65.98
54146;BME280;65909;49.422;7.738;2023-02-18T09:46:59;76567.75;;;-145.25;65.96
54146;BME280;65909;49.422;7.738;2023-02-18T09:49:29;76565.75;;;-145.25;65.63
54146;BME280;65909;49.422;7.738;2023-02-18T09:52:03;76563.72;;;-145.25;65.49
54146;BME280;65909;49.422;7.738;2023-02-18T09:54:30;76561.72;;;-145.25;65.39
54146;BME280;65909;49.422;7.738;2023-02-18T09:56:55;76581.78;;;-145.25;66.34
54146;BME280;65909;49.422;7.738;2023-02-18T09:59:21;76581.78;;;-145.25;66.14
54146;BME280;65909;49.422;7.738;2023-02-18T10:01:50;76577.78;;;-145.25;66.01
54146;BME280;65909;49.422;7.738;2023-02-18T10:04:21;76565.75;;;-145.25;66.02
54146;BME280;65909;49.422;7.738;2023-02-18T10:06:50;76567.75;;;-145.25;66.39
54146;BME280;65909;49.422;7.738;2023-02-18T10:09:24;76577.78;;;-145.25;66.65
54146;BME280;65909;49.422;7.738;2023-02-18T10:12:19;76573.75;;;-145.25;66.79
54146;BME280;65909;49.422;7.738;2023-02-18T10:14:49;76567.75;;;-145.25;66.63
54146;BME280;65909;49.422;7.738;2023-02-18T10:17:15;76551.72;;;-145.25;66.89
54146;BME280;65909;49.422;7.738;2023-02-18T10:19:42;76527.66;;;-145.25;66.29
54146;BME280;65909;49.422;7.738;2023-02-18T10:22:10;76519.63;;;-145.25;65.85
54146;BME280;65909;49.422;7.738;2023-02-18T10:24:39;76521.63;;;-145.25;65.81
54146;BME280;65909;49.422;7.738;2023-02-18T10:27:07;76499.56;;;-145.25;65.61
54146;BME280;65909;49.422;7.738;2023-02-18T10:29:33;76491.56;;;-145.25;66.11
54146;BME280;65909;49.422;7.738;2023-02-18T10:32:15;76473.50;;;-145.25;65.14
54146;BME280;65909;49.422;7.738;2023-02-18T10:34:51;76455.47;;;-145.25;65.09
54146;BME280;65909;49.422;7.738;2023-02-18T10:45:42;76451.47;;;-145.25;64.59
54146;BME280;65909;49.422;7.738;2023-02-18T10:48:38;76427.41;;;-145.25;64.43
54146;BME280;65909;49.422;7.738;2023-02-18T10:51:18;76423.41;;;-145.25;63.53
54146;BME280;65909;49.422;7.738;2023-02-18T10:53:45;76429.41;;;-145.25;63.35
54146;BME280;65909;49.422;7.738;2023-02-18T10:56:38;76425.41;;;-145.25;63.25
54146;BME280;65909;49.422;7.738;2023-02-18T10:59:10;76431.41;;;-145.25;63.90
54146;BME280;65909;49.422;7.738;2023-02-18T11:01:36;76433.41;;;-145.25;63.65
54146;BME280;65909;49.422;7.738;2023-02-18T11:04:11;76445.44;;;-145.25;64.42
54146;BME280;65909;49.422;7.738;2023-02-18T11:06:48;76429.41;;;-145.25;64.38
54146;BME280;65909;49.422;7.738;2023-02-18T11:09:28;76445.44;;;-145.25;63.47
54146;BME280;65909;49.422;7.738;2023-02-18T11:12:23;76449.44;;;-145.25;63.55
54146;BME280;65909;49.422;7.738;2023-02-18T11:14:49;76427.41;;;-145.25;64.39
54146;BME280;65909;49.422;7.738;2023-02-18T11:17:30;76429.41;;;-145.25;64.19
54146;BME280;65909;49.422;7.738;2023-02-18T11:19:58;76441.44;;;-145.25;64.09
54146;BME280;65909;49.422;7.738;2023-02-18T11:22:28;76437.44;;;-145.25;65.02
54146;BME280;65909;49.422;7.738;2023-02-18T11:24:56;76441.44;;;-145.25;65.04
54146;BME280;65909;49.422;7.738;2023-02-18T11:27:26;76283.06;;;-145.25;61.59
54146;BME280;65909;49.422;7.738;2023-02-18T11:30:02;76333.19;;;-145.25;61.89
54146;BME280;65909;49.422;7.738;2023-02-18T11:32:28;76371.28;;;-145.25;63.13
54146;BME280;65909;49.422;7.738;2023-02-18T11:34:55;76401.34;;;-145.25;64.30
54146;BME280;65909;49.422;7.738;2023-02-18T11:37:21;76401.34;;;-145.25;63.24
54146;BME280;65909;49.422;7.738;2023-02-18T11:39:49;76409.34;;;-145.25;63.83
54146;BME280;65909;49.422;7.738;2023-02-18T11:42:18;76413.38;;;-145.25;64.06
54146;BME280;65909;49.422;7.738;2023-02-18T11:44:58;76409.34;;;-145.25;64.03
54146;BME280;65909;49.422;7.738;2023-02-18T11:47:30;76421.38;;;-145.25;63.96
54146;BME280;65909;49.422;7.738;2023-02-18T11:50:23;76401.34;;;-145.25;64.13
54146;BME280;65909;49.422;7.738;2023-02-18T11:52:49;76417.38;;;-145.25;64.72
54146;BME280;65909;49.422;7.738;2023-02-18T11:55:28;76407.34;;;-145.25;64.06
54146;BME280;65909;49.422;7.738;2023-02-18T11:58:04;76403.34;;;-145.25;64.35
54146;BME280;65909;49.422;7.738;2023-02-18T12:00:49;76401.34;;;-145.25;64.07
54146;BME280;65909;49.422;7.738;2023-02-18T12:03:37;76405.34;;;-145.25;64.41
54146;BME280;65909;49.422;7.738;2023-02-18T12:06:13;76409.34;;;-145.25;64.42
54146;BME280;65909;49.422;7.738;2023-02-18T12:08:48;76433.41;;;-145.25;64.27
54146;BME280;65909;49.422;7.738;2023-02-18T12:11:41;76391.31;;;-145.25;64.06
54146;BME280;65909;49.422;7.738;2023-02-18T12:14:08;76383.28;;;-145.25;64.28
54146;BME280;65909;49.422;7.738;2023-02-18T12:17:48;76341.19;;;-145.25;63.12
54146;BME280;65909;49.422;7.738;2023-02-18T12:22:40;76297.09;;;-145.25;61.92
54146;BME280;65909;49.422;7.738;2023-02-18T12:30:53;76309.13;;;-145.25;62.01
54146;BME280;65909;49.422;7.738;2023-02-18T12:36:28;76351.22;;;-145.25;62.78
54146;BME280;65909;49.422;7.738;2023-02-18T12:39:01;76393.31;;;-145.25;63.78
54146;BME280;65909;49.422;7.738;2023-02-18T12:44:44;76375.28;;;-145.25;64.36
54146;BME280;65909;49.422;7.738;2023-02-18T12:58:58;76373.28;;;-145.25;66.90
54146;BME280;65909;49.422;7.738;2023-02-18T13:01:54;76361.25;;;-145.25;66.45
54146;BME280;65909;49.422;7.738;2023-02-18T13:07:09;76385.31;;;-145.25;67.46
54146;BME280;65909;49.422;7.738;2023-02-18T13:15:13;76411.38;;;-145.25;70.46
54146;BME280;65909;49.422;7.738;2023-02-18T13:17:41;76421.38;;;-145.25;72.02
54146;BME280;65909;49.422;7.738;2023-02-18T13:23:05;76415.38;;;-145.25;72.89
54146;BME280;65909;49.422;7.738;2023-02-18T13:25:37;76399.34;;;-145.25;72.15
54146;BME280;65909;49.422;7.738;2023-02-18T13:30:47;76339.19;;;-145.25;70.64
54146;BME280;65909;49.422;7.738;2023-02-18T13:33:22;76361.25;;;-145.25;70.28
54146;BME280;65909;49.422;7.738;2023-02-18T13:41:22;76381.28;;;-145.25;69.86
54146;BME280;65909;49.422;7.738;2023-02-18T13:43:49;76373.28;;;-145.25;69.65
54146;BME280;65909;49.422;7.738;2023-02-18T13:46:19;76369.25;;;-145.25;70.12
54146;BME280;65909;49.422;7.738;2023-02-18T13:48:58;76361.25;;;-145.25;69.36
54146;BME280;65909;49.422;7.738;2023-02-18T13:51:37;76391.31;;;-145.25;69.76
54146;BME280;65909;49.422;7.738;2023-02-18T13:56:46;76395.31;;;-145.25;71.20
54146;BME280;65909;49.422;7.738;2023-02-18T13:59:18;76409.34;;;-145.25;72.31
54146;BME280;65909;49.422;7.738;2023-02-18T14:01:46;76415.38;;;-145.25;72.68
54146;BME280;65909;49.422;7.738;2023-02-18T14:09:44;76439.44;;;-145.25;73.65
54146;BME280;65909;49.422;7.738;2023-02-18T14:12:39;76429.41;;;-145.25;73.83
54146;BME280;65909;49.422;7.738;2023-02-18T14:22:57;76431.41;;;-145.25;74.76
54146;BME280;65909;49.422;7.738;2023-02-18T14:25:36;76427.41;;;-145.25;74.75
54146;BME280;65909;49.422;7.738;2023-02-18T14:31:00;76405.34;;;-145.25;75.07
54146;BME280;65909;49.422;7.738;2023-02-18T14:33:29;76413.38;;;-145.25;75.41
54146;BME280;65909;49.422;7.738;2023-02-18T14:38:45;76407.34;;;-145.25;75.47
54146;BME280;65909;49.422;7.738;2023-02-18T14:41:32;76419.38;;;-145.25;75.70
54146;BME280;65909;49.422;7.738;2023-02-18T14:44:19;76399.34;;;-145.25;75.67